createdAt,value
2019-05-03T00:00:11.449Z,16.37
2019-05-03T00:02:41.705Z,18.93
2019-05-03T00:05:12.511Z,14.07
2019-05-03T00:07:42.042Z,14.00
2019-05-03T00:10:09.344Z,17.17
2019-05-03T00:12:36.179Z,16.03
2019-05-03T00:15:07.727Z,15.50
2019-05-03T00:17:34.299Z,14.43
2019-05-03T00:20:02.329Z,14.93
2019-05-03T00:22:29.591Z,14.17
2019-05-03T00:25:05.284Z,17.63
2019-05-03T00:27:24.895Z,16.23
2019-05-03T00:29:52.391Z,15.60
2019-05-03T00:32:21.598Z,24.27
2019-05-03T00:34:52.059Z,20.03
2019-05-03T00:37:22.089Z,21.20
2019-05-03T00:39:52.384Z,17.90
2019-05-03T00:42:20.082Z,18.20
2019-05-03T00:44:46.723Z,17.70
2019-05-03T00:47:13.457Z,18.00
2019-05-03T00:49:40.103Z,17.37
2019-05-03T00:52:06.861Z,19.03
2019-05-03T00:54:33.671Z,17.40
2019-05-03T00:57:02.546Z,23.07
2019-05-03T00:59:29.009Z,17.80
2019-05-03T01:01:55.691Z,17.73
2019-05-03T01:04:22.436Z,18.03
2019-05-03T01:06:49.181Z,16.83
2019-05-03T01:09:17.657Z,23.67
2019-05-03T01:11:44.403Z,15.13
2019-05-03T01:14:11.991Z,15.83
2019-05-03T01:16:38.937Z,17.53
2019-05-03T01:19:05.507Z,20.00
2019-05-03T01:21:32.165Z,17.40
2019-05-03T01:23:58.875Z,22.43
2019-05-03T01:26:25.536Z,17.83
2019-05-03T01:28:52.443Z,17.43
2019-05-03T01:31:19.461Z,16.57
2019-05-03T01:33:46.034Z,20.90
2019-05-03T01:36:12.944Z,22.43
2019-05-03T01:38:39.511Z,18.37
2019-05-03T01:41:06.194Z,23.53
2019-05-03T01:43:32.799Z,17.83
2019-05-03T01:45:59.590Z,19.43
2019-05-03T01:48:28.169Z,22.97
2019-05-03T01:50:56.768Z,21.77
2019-05-03T01:53:25.313Z,20.97
2019-05-03T01:55:52.393Z,16.87
2019-05-03T01:58:22.363Z,19.70
2019-05-03T02:00:52.833Z,20.67
2019-05-03T02:03:21.841Z,23.93
2019-05-03T02:05:52.044Z,18.83
2019-05-03T02:08:18.914Z,19.43
2019-05-03T02:10:45.687Z,19.60
2019-05-03T02:13:12.400Z,18.10
2019-05-03T02:15:39.086Z,19.43
2019-05-03T02:18:05.926Z,23.20
2019-05-03T02:20:32.753Z,20.43
2019-05-03T02:22:59.474Z,16.97
2019-05-03T02:25:26.238Z,17.17
2019-05-03T02:27:54.424Z,18.77
2019-05-03T02:30:21.207Z,19.13
2019-05-03T02:32:47.878Z,21.70
2019-05-03T02:35:15.150Z,18.43
2019-05-03T02:37:44.343Z,19.03
2019-05-03T02:40:13.183Z,18.53
2019-05-03T02:42:42.144Z,16.27
2019-05-03T02:45:15.487Z,18.80
2019-05-03T02:47:47.028Z,19.67
2019-05-03T02:50:16.685Z,19.23
2019-05-03T02:52:45.563Z,18.20
2019-05-03T02:55:15.636Z,18.93
2019-05-03T02:57:41.692Z,17.90
2019-05-03T03:00:12.170Z,17.77
2019-05-03T03:02:40.523Z,15.47
2019-05-03T03:05:09.559Z,16.43
2019-05-03T03:07:37.838Z,16.80
2019-05-03T03:10:06.412Z,19.47
2019-05-03T03:12:36.995Z,17.33
2019-05-03T03:15:06.238Z,21.60
2019-05-03T03:17:36.165Z,15.60
2019-05-03T03:20:05.814Z,22.30
2019-05-03T03:22:36.254Z,21.33
2019-05-03T03:25:06.175Z,30.90
2019-05-03T03:27:38.474Z,36.37
2019-05-03T03:30:12.453Z,33.40
2019-05-03T03:32:40.358Z,36.10
2019-05-03T03:35:14.891Z,28.00
2019-05-03T03:37:41.624Z,24.77
2019-05-03T03:40:08.452Z,26.07
2019-05-03T03:42:39.451Z,29.13
2019-05-03T03:45:06.751Z,18.43
2019-05-03T03:47:37.218Z,20.60
2019-05-03T03:50:05.934Z,21.17
2019-05-03T03:52:35.863Z,19.30
2019-05-03T03:55:06.186Z,23.10
2019-05-03T03:57:35.665Z,22.20
2019-05-03T04:00:06.812Z,21.60
2019-05-03T04:02:35.392Z,18.83
2019-05-03T04:05:05.558Z,20.07
2019-05-03T04:07:36.111Z,21.67
2019-05-03T04:10:06.574Z,19.97
2019-05-03T04:12:35.231Z,21.50
2019-05-03T04:15:06.333Z,22.17
2019-05-03T04:17:36.115Z,20.33
2019-05-03T04:20:06.698Z,24.67
2019-05-03T04:22:36.336Z,22.70
2019-05-03T04:25:05.991Z,19.87
2019-05-03T04:27:36.429Z,22.33
2019-05-03T04:30:05.971Z,22.90
2019-05-03T04:32:32.988Z,20.90
2019-05-03T04:34:59.726Z,25.93
2019-05-03T04:37:29.596Z,22.30
2019-05-03T04:39:56.266Z,19.73
2019-05-03T04:42:25.362Z,22.17
2019-05-03T04:44:51.946Z,22.50
2019-05-03T04:47:18.517Z,26.33
2019-05-03T04:49:46.321Z,22.63
2019-05-03T04:52:16.232Z,20.60
2019-05-03T04:54:45.206Z,22.37
2019-05-03T04:57:12.134Z,21.90
2019-05-03T04:59:38.819Z,21.37
2019-05-03T05:02:06.264Z,17.00
2019-05-03T05:04:35.511Z,20.13
2019-05-03T05:07:01.891Z,16.80
2019-05-03T05:09:28.518Z,15.20
2019-05-03T05:11:55.274Z,18.37
2019-05-03T05:14:22.150Z,16.97
2019-05-03T05:16:48.792Z,15.03
2019-05-03T05:19:17.477Z,15.50
2019-05-03T05:21:46.073Z,12.20
2019-05-03T05:24:15.041Z,14.10
2019-05-03T05:26:44.632Z,14.97
2019-05-03T05:29:14.582Z,15.87
2019-05-03T05:31:41.937Z,13.13
2019-05-03T05:34:09.089Z,12.27
2019-05-03T05:36:35.642Z,13.87
2019-05-03T05:39:05.320Z,16.27
2019-05-03T05:41:32.479Z,11.00
2019-05-03T05:43:59.227Z,11.90
2019-05-03T05:46:27.831Z,14.40
2019-05-03T05:48:55.536Z,10.10
2019-05-03T05:51:22.311Z,12.63
2019-05-03T05:53:48.978Z,14.90
2019-05-03T05:56:17.592Z,10.10
2019-05-03T05:58:46.344Z,10.70
2019-05-03T06:01:15.135Z,12.87
2019-05-03T06:03:42.003Z,11.03
2019-05-03T06:06:10.654Z,10.23
2019-05-03T06:08:39.221Z,13.13
2019-05-03T06:11:08.095Z,10.67
2019-05-03T06:13:36.751Z,10.87
2019-05-03T06:16:05.538Z,15.83
2019-05-03T06:18:35.334Z,9.40
2019-05-03T06:21:04.652Z,9.60
2019-05-03T06:23:34.763Z,10.23
2019-05-03T06:26:05.006Z,8.13
2019-05-03T06:28:35.255Z,7.03
2019-05-03T06:31:04.777Z,7.47
2019-05-03T06:33:31.889Z,5.07
2019-05-03T06:35:58.651Z,6.27
2019-05-03T06:38:25.224Z,10.77
2019-05-03T06:40:54.379Z,3.53
2019-05-03T06:43:21.273Z,6.30
2019-05-03T06:45:50.358Z,3.53
2019-05-03T06:48:17.715Z,4.13
2019-05-03T06:50:45.486Z,2.40
2019-05-03T06:53:13.035Z,5.13
2019-05-03T06:55:45.544Z,3.77
2019-05-03T06:58:09.157Z,5.40
2019-05-03T07:00:37.945Z,5.93
2019-05-03T07:03:06.606Z,4.47
2019-05-03T07:05:35.480Z,5.90
2019-05-03T07:08:05.553Z,5.87
2019-05-03T07:10:35.318Z,3.77
2019-05-03T07:13:05.073Z,7.60
2019-05-03T07:15:32.384Z,2.80
2019-05-03T07:17:59.141Z,8.43
2019-05-03T07:20:26.203Z,3.13
2019-05-03T07:22:55.691Z,4.47
2019-05-03T07:25:25.313Z,2.57
2019-05-03T07:27:55.286Z,7.50
2019-05-03T07:30:21.830Z,4.27
2019-05-03T07:32:50.355Z,5.80
2019-05-03T07:35:17.088Z,4.83
2019-05-03T07:37:45.072Z,4.47
2019-05-03T07:40:14.710Z,6.87
2019-05-03T07:42:42.605Z,11.63
2019-05-03T07:45:11.817Z,5.03
2019-05-03T07:47:38.499Z,5.70
2019-05-03T07:50:05.784Z,4.03
2019-05-03T07:52:34.748Z,4.47
2019-05-03T07:55:01.996Z,4.50
2019-05-03T07:57:30.648Z,3.33
2019-05-03T07:59:57.371Z,7.83
2019-05-03T08:02:27.100Z,4.70
2019-05-03T08:04:54.804Z,4.93
2019-05-03T08:07:23.047Z,4.13
2019-05-03T08:09:50.197Z,4.93
2019-05-03T08:12:16.853Z,5.30
2019-05-03T08:14:44.666Z,6.90
2019-05-03T08:17:11.913Z,4.13
2019-05-03T08:19:38.621Z,4.73
2019-05-03T08:22:05.458Z,5.67
2019-05-03T08:24:32.130Z,9.63
2019-05-03T08:26:58.959Z,4.67
2019-05-03T08:29:25.611Z,5.33
2019-05-03T08:31:55.274Z,7.17
2019-05-03T08:34:25.781Z,8.13
2019-05-03T08:37:50.990Z,6.87
2019-05-03T08:40:18.564Z,5.33
2019-05-03T08:42:46.563Z,7.23
2019-05-03T08:45:16.477Z,6.87
2019-05-03T08:47:44.852Z,6.80
2019-05-03T08:50:15.097Z,5.47
2019-05-03T08:52:40.618Z,4.53
2019-05-03T08:55:07.620Z,9.30
2019-05-03T08:57:35.398Z,6.50
2019-05-03T09:00:07.865Z,10.30
2019-05-03T09:02:34.631Z,8.57
2019-05-03T09:05:01.425Z,6.17
2019-05-03T09:07:28.322Z,11.00
2019-05-03T09:09:56.962Z,6.17
2019-05-03T09:12:25.187Z,6.70
2019-05-03T09:14:52.232Z,7.53
2019-05-03T09:17:18.886Z,7.67
2019-05-03T09:19:45.700Z,10.00
2019-05-03T09:22:12.292Z,6.47
2019-05-03T09:24:39.136Z,4.20
2019-05-03T09:27:05.939Z,13.40
2019-05-03T09:29:41.052Z,7.30
2019-05-03T09:32:01.364Z,5.17
2019-05-03T09:34:28.106Z,3.97
2019-05-03T09:36:55.366Z,7.57
2019-05-03T09:39:22.134Z,9.03
2019-05-03T09:41:48.706Z,10.50
2019-05-03T09:44:15.560Z,6.93
2019-05-03T09:46:42.187Z,6.07
2019-05-03T09:49:13.253Z,7.40
2019-05-03T09:51:37.483Z,8.57
2019-05-03T09:54:06.072Z,8.43
2019-05-03T09:56:34.807Z,8.17
2019-05-03T09:59:05.309Z,9.30
2019-05-03T10:01:32.015Z,6.57
2019-05-03T10:03:58.992Z,8.57
2019-05-03T10:06:25.588Z,8.20
2019-05-03T10:08:52.362Z,18.17
2019-05-03T10:11:18.934Z,6.77
2019-05-03T10:13:48.284Z,5.40
2019-05-03T10:16:15.568Z,8.50
2019-05-03T10:18:42.783Z,5.17
2019-05-03T10:21:09.594Z,7.47
2019-05-03T10:23:38.056Z,5.50
2019-05-03T10:26:05.237Z,3.90
2019-05-03T10:28:32.457Z,8.93
2019-05-03T10:31:00.925Z,6.70
2019-05-03T10:33:30.036Z,5.67
2019-05-03T10:35:56.912Z,6.73
2019-05-03T10:38:24.621Z,7.53
2019-05-03T10:40:51.390Z,8.10
2019-05-03T10:43:17.988Z,6.00
2019-05-03T10:45:45.046Z,8.27
2019-05-03T10:48:12.775Z,8.67
2019-05-03T10:50:40.290Z,3.90
2019-05-03T10:53:09.092Z,4.33
2019-05-03T10:55:35.915Z,6.43
2019-05-03T10:58:05.313Z,4.20
2019-05-03T11:00:48.236Z,10.17
2019-05-03T11:03:05.126Z,5.43
2019-05-03T11:05:32.064Z,7.83
2019-05-03T11:07:58.732Z,9.80
2019-05-03T11:10:25.463Z,5.83
2019-05-03T11:12:52.167Z,4.47
2019-05-03T11:15:19.039Z,7.93
2019-05-03T11:17:45.950Z,8.97
2019-05-03T11:20:28.472Z,5.63
2019-05-03T11:22:47.092Z,7.13
2019-05-03T11:25:13.872Z,4.93
2019-05-03T11:27:44.606Z,5.30
2019-05-03T11:30:11.806Z,10.20
2019-05-03T11:32:40.375Z,9.07
2019-05-03T11:35:11.676Z,5.80
2019-05-03T11:37:40.704Z,7.80
2019-05-03T11:40:08.264Z,9.13
2019-05-03T11:42:35.324Z,6.27
2019-05-03T11:45:06.587Z,5.87
2019-05-03T11:47:34.830Z,8.87
2019-05-03T11:50:05.469Z,7.90
2019-05-03T11:52:32.073Z,6.20
2019-05-03T11:54:58.884Z,5.23
2019-05-03T11:57:27.401Z,7.37
2019-05-03T11:59:54.874Z,12.97
2019-05-03T12:02:24.757Z,4.87
2019-05-03T12:04:51.508Z,4.97
2019-05-03T12:07:20.128Z,9.00
2019-05-03T12:09:46.688Z,7.13
2019-05-03T12:12:15.234Z,6.87
2019-05-03T12:14:45.296Z,4.07
2019-05-03T12:17:21.023Z,8.13
2019-05-03T12:19:44.144Z,5.03
2019-05-03T12:22:12.182Z,7.43
2019-05-03T12:24:39.976Z,3.73
2019-05-03T12:27:07.099Z,8.20
2019-05-03T12:29:35.265Z,5.37
2019-05-03T12:32:02.492Z,7.27
2019-05-03T12:34:29.205Z,4.90
2019-05-03T12:36:55.770Z,3.90
2019-05-03T12:39:27.375Z,7.30
2019-05-03T12:41:51.166Z,8.63
2019-05-03T12:44:17.757Z,5.83
2019-05-03T12:46:44.999Z,6.50
2019-05-03T12:49:12.071Z,8.77
2019-05-03T12:51:38.650Z,7.83
2019-05-03T12:54:05.254Z,7.07
2019-05-03T12:56:32.934Z,12.27
2019-05-03T12:59:02.498Z,6.50
2019-05-03T13:01:41.021Z,5.87
2019-05-03T13:04:02.592Z,6.03
2019-05-03T13:06:31.121Z,5.90
2019-05-03T13:08:57.878Z,6.17
2019-05-03T13:11:25.162Z,3.57
2019-05-03T13:13:51.960Z,5.47
2019-05-03T13:16:20.055Z,9.03
2019-05-03T13:18:47.124Z,9.20
2019-05-03T13:21:13.921Z,8.20
2019-05-03T13:23:40.621Z,8.47
2019-05-03T13:26:07.707Z,9.47
2019-05-03T13:28:34.632Z,5.73
2019-05-03T13:31:01.621Z,3.53
2019-05-03T13:33:28.262Z,5.30
2019-05-03T13:35:55.247Z,8.90
2019-05-03T13:38:22.303Z,6.13
2019-05-03T13:40:48.948Z,6.23
2019-05-03T13:43:15.526Z,16.43
2019-05-03T13:45:42.321Z,7.07
2019-05-03T13:48:09.099Z,6.97
2019-05-03T13:50:36.975Z,4.03
2019-05-03T13:53:04.835Z,7.20
2019-05-03T13:55:32.069Z,9.80
2019-05-03T13:57:58.968Z,5.60
2019-05-03T14:00:25.841Z,17.63
2019-05-03T14:02:52.599Z,4.63
2019-05-03T14:05:19.157Z,7.70
2019-05-03T14:07:45.764Z,3.43
2019-05-03T14:10:14.124Z,4.77
2019-05-03T14:12:41.000Z,5.00
2019-05-03T14:15:08.181Z,6.93
2019-05-03T14:17:36.104Z,3.77
2019-05-03T14:20:09.015Z,7.53
2019-05-03T14:22:37.708Z,9.13
2019-05-03T14:25:05.456Z,7.00
2019-05-03T14:27:34.836Z,7.30
2019-05-03T14:30:05.648Z,5.67
2019-05-03T14:32:35.697Z,3.77
2019-05-03T14:35:06.481Z,4.90
2019-05-03T14:37:34.989Z,4.93
2019-05-03T14:40:06.147Z,5.20
2019-05-03T14:42:32.720Z,5.33
2019-05-03T14:44:59.519Z,7.57
2019-05-03T14:47:26.207Z,8.47
2019-05-03T14:49:54.625Z,5.80
2019-05-03T14:52:21.398Z,6.40
2019-05-03T14:54:49.940Z,8.03
2019-05-03T14:57:18.400Z,7.73
2019-05-03T14:59:47.002Z,3.47
2019-05-03T15:02:15.685Z,12.83
2019-05-03T15:04:42.540Z,7.20
2019-05-03T15:07:09.137Z,12.13
2019-05-03T15:09:35.915Z,8.93
2019-05-03T15:12:05.362Z,7.77
2019-05-03T15:14:32.262Z,6.40
2019-05-03T15:16:58.910Z,5.20
2019-05-03T15:19:25.522Z,11.00
2019-05-03T15:21:52.134Z,9.27
2019-05-03T15:24:18.719Z,5.33
2019-05-03T15:26:45.412Z,7.73
2019-05-03T15:29:12.716Z,9.80
2019-05-03T15:31:39.296Z,6.10
2019-05-03T15:34:06.502Z,5.43
2019-05-03T15:36:33.155Z,4.83
2019-05-03T15:38:59.952Z,6.57
2019-05-03T15:41:26.621Z,6.87
2019-05-03T15:43:55.988Z,3.87
2019-05-03T15:46:25.201Z,8.77
2019-05-03T15:48:55.107Z,6.13
2019-05-03T15:51:22.066Z,10.27
2019-05-03T15:53:49.741Z,7.07
2019-05-03T15:56:16.559Z,7.33
2019-05-03T15:58:46.439Z,14.90
2019-05-03T16:01:11.618Z,5.17
2019-05-03T16:03:38.868Z,4.73
2019-05-03T16:06:05.561Z,5.07
2019-05-03T16:08:32.177Z,6.73
2019-05-03T16:10:58.953Z,9.83
2019-05-03T16:13:25.549Z,3.83
2019-05-03T16:15:55.027Z,5.17
2019-05-03T16:18:21.517Z,7.50
2019-05-03T16:20:48.341Z,9.60
2019-05-03T16:23:15.464Z,7.87
2019-05-03T16:25:42.499Z,11.13
2019-05-03T16:28:10.997Z,8.33
2019-05-03T16:30:38.864Z,10.17
2019-05-03T16:33:05.595Z,9.07
2019-05-03T16:35:32.215Z,7.23
2019-05-03T16:37:58.891Z,6.47
2019-05-03T16:40:25.603Z,6.93
2019-05-03T16:42:53.332Z,7.37
2019-05-03T16:45:22.497Z,8.40
2019-05-03T16:47:49.177Z,10.33
2019-05-03T16:50:16.541Z,10.57
2019-05-03T16:52:43.141Z,5.17
2019-05-03T16:55:10.025Z,6.80
2019-05-03T16:57:37.014Z,7.43
2019-05-03T17:00:06.215Z,6.47
2019-05-03T17:02:34.964Z,7.10
2019-05-03T17:05:05.166Z,10.37
2019-05-03T17:07:35.354Z,6.13
2019-05-03T17:10:07.841Z,13.03
2019-05-03T17:12:36.306Z,6.73
2019-05-03T17:15:06.479Z,5.97
2019-05-03T17:17:34.490Z,8.33
2019-05-03T17:20:06.080Z,9.17
2019-05-03T17:22:34.510Z,14.57
2019-05-03T17:25:04.379Z,9.50
2019-05-03T17:27:31.429Z,12.93
2019-05-03T17:29:58.197Z,17.43
2019-05-03T17:32:25.048Z,11.43
2019-05-03T17:34:51.730Z,5.20
2019-05-03T17:37:18.374Z,10.63
2019-05-03T17:39:46.987Z,10.27
2019-05-03T17:42:15.688Z,9.13
2019-05-03T17:44:45.133Z,7.07
2019-05-03T17:47:11.999Z,9.87
2019-05-03T17:49:38.585Z,8.57
2019-05-03T17:52:07.637Z,8.93
2019-05-03T17:54:36.405Z,11.37
2019-05-03T17:57:05.405Z,12.40
2019-05-03T17:59:35.074Z,6.40
2019-05-03T18:02:06.745Z,14.87
2019-05-03T18:04:35.227Z,10.57
2019-05-03T18:07:04.555Z,11.23
2019-05-03T18:09:34.640Z,16.03
2019-05-03T18:12:04.642Z,11.80
2019-05-03T18:14:31.670Z,13.30
2019-05-03T18:16:58.290Z,18.80
2019-05-03T18:19:24.975Z,22.27
2019-05-03T18:21:51.584Z,17.00
2019-05-03T18:24:18.218Z,21.17
2019-05-03T18:26:44.861Z,17.37
2019-05-03T18:29:11.777Z,13.80
2019-05-03T18:31:38.584Z,9.90
2019-05-03T18:34:18.400Z,5.93
2019-05-03T18:36:34.669Z,9.40
2019-05-03T18:39:02.067Z,11.13
2019-05-03T18:41:30.015Z,9.40
2019-05-03T18:43:58.798Z,9.33
2019-05-03T18:46:27.298Z,10.27
2019-05-03T18:48:55.189Z,11.27
2019-05-03T18:51:22.280Z,15.40
2019-05-03T18:53:48.991Z,14.33
2019-05-03T18:56:16.015Z,13.90
2019-05-03T18:58:44.742Z,21.20
2019-05-03T19:01:14.869Z,15.93
2019-05-03T19:03:45.091Z,15.17
2019-05-03T19:06:14.115Z,18.53
2019-05-03T19:08:40.998Z,16.13
2019-05-03T19:11:11.582Z,14.17
2019-05-03T19:13:41.606Z,16.57
2019-05-03T19:16:10.566Z,13.07
2019-05-03T19:18:39.275Z,14.67
2019-05-03T19:21:06.016Z,11.10
2019-05-03T19:23:32.972Z,17.17
2019-05-03T19:25:59.988Z,9.43
2019-05-03T19:28:26.926Z,12.90
2019-05-03T19:30:55.092Z,12.37
2019-05-03T19:33:21.982Z,12.50
2019-05-03T19:35:48.865Z,13.10
2019-05-03T19:38:15.846Z,11.87
2019-05-03T19:40:42.443Z,13.10
2019-05-03T19:43:09.182Z,10.40
2019-05-03T19:45:35.793Z,16.77
2019-05-03T19:48:03.387Z,15.80
2019-05-03T19:50:29.960Z,16.13
2019-05-03T19:52:58.635Z,14.87
2019-05-03T19:55:25.665Z,14.97
2019-05-03T19:57:54.831Z,14.50
2019-05-03T20:00:25.557Z,10.00
2019-05-03T20:02:54.693Z,11.97
2019-05-03T20:05:25.253Z,15.90
2019-05-03T20:07:57.117Z,13.33
2019-05-03T20:10:25.409Z,17.27
2019-05-03T20:12:52.950Z,19.70
2019-05-03T20:15:20.654Z,14.23
2019-05-03T20:17:56.561Z,14.57
2019-05-03T20:20:16.709Z,13.07
2019-05-03T20:22:45.445Z,15.87
2019-05-03T20:25:15.182Z,14.87
2019-05-03T20:27:44.381Z,11.50
2019-05-03T20:30:15.001Z,16.13
2019-05-03T20:32:42.554Z,23.40
2019-05-03T20:35:18.123Z,14.10
2019-05-03T20:37:39.341Z,15.07
2019-05-03T20:40:06.767Z,15.63
2019-05-03T20:42:35.789Z,14.80
2019-05-03T20:45:05.469Z,22.77
2019-05-03T20:47:35.423Z,18.10
2019-05-03T20:50:07.389Z,25.70
2019-05-03T20:52:35.202Z,28.60
2019-05-03T20:55:04.758Z,26.37
2019-05-03T20:57:31.811Z,28.23
2019-05-03T20:59:58.545Z,28.80
2019-05-03T21:02:25.387Z,26.90
2019-05-03T21:04:52.234Z,28.13
2019-05-03T21:07:19.139Z,29.57
2019-05-03T21:09:45.866Z,35.37
2019-05-03T21:12:14.594Z,32.63
2019-05-03T21:14:41.266Z,32.73
2019-05-03T21:17:09.862Z,28.40
2019-05-03T21:19:38.411Z,28.37
2019-05-03T21:22:10.234Z,25.60
2019-05-03T21:24:40.307Z,29.87
2019-05-03T21:27:07.011Z,25.63
2019-05-03T21:29:35.806Z,30.57
2019-05-03T21:32:04.508Z,25.33
2019-05-03T21:34:31.301Z,26.70
2019-05-03T21:36:57.911Z,26.87
2019-05-03T21:39:25.874Z,27.33
2019-05-03T21:41:52.508Z,36.63
2019-05-03T21:44:21.164Z,31.03
2019-05-03T21:46:49.712Z,33.80
2019-05-03T21:49:18.208Z,38.57
2019-05-03T21:51:45.054Z,41.03
2019-05-03T21:54:12.271Z,40.07
2019-05-03T21:56:39.005Z,41.63
2019-05-03T21:59:05.766Z,42.50
2019-05-03T22:01:37.446Z,43.43
2019-05-03T22:04:04.517Z,47.93
2019-05-03T22:06:31.254Z,44.07
2019-05-03T22:08:58.404Z,45.03
2019-05-03T22:11:25.438Z,46.97
2019-05-03T22:13:56.841Z,38.80
2019-05-03T22:16:24.906Z,40.03
2019-05-03T22:18:51.681Z,39.83
2019-05-03T22:21:20.475Z,36.30
2019-05-03T22:23:49.336Z,36.53
2019-05-03T22:26:16.208Z,32.50
2019-05-03T22:28:44.444Z,43.00
2019-05-03T22:31:11.294Z,35.47
2019-05-03T22:33:37.969Z,35.33
2019-05-03T22:36:08.611Z,34.83
2019-05-03T22:38:36.370Z,36.37
2019-05-03T22:41:01.822Z,46.83
2019-05-03T22:43:28.533Z,38.47
2019-05-03T22:45:55.206Z,46.67
2019-05-03T22:48:21.996Z,45.10
2019-05-03T22:50:48.574Z,44.80
2019-05-03T22:53:15.194Z,50.63
2019-05-03T22:55:41.906Z,49.67
2019-05-03T22:58:09.776Z,47.27
2019-05-03T23:00:36.330Z,51.03
2019-05-03T23:03:03.227Z,54.40
2019-05-03T23:05:30.029Z,51.73
2019-05-03T23:07:56.601Z,50.87
2019-05-03T23:10:25.531Z,44.90
2019-05-03T23:12:51.783Z,48.37
2019-05-03T23:15:18.528Z,50.50
2019-05-03T23:17:45.222Z,46.20
2019-05-03T23:20:15.039Z,49.23
2019-05-03T23:22:41.836Z,49.00
2019-05-03T23:25:09.225Z,49.63
2019-05-03T23:27:36.586Z,52.80
2019-05-03T23:30:05.116Z,55.93
2019-05-03T23:32:34.930Z,59.97
2019-05-03T23:35:04.948Z,55.00
2019-05-03T23:37:32.014Z,56.10
2019-05-03T23:39:58.658Z,52.53
2019-05-03T23:42:25.229Z,65.03
2019-05-03T23:44:51.883Z,55.70
2019-05-03T23:47:20.444Z,54.23
2019-05-03T23:49:47.130Z,44.83
2019-05-03T23:52:17.759Z,49.33
2019-05-03T23:54:44.339Z,53.40
2019-05-03T23:57:10.930Z,49.73
2019-05-03T23:59:39.120Z,45.07
